Allendale, SC

7:55 PM EDT on July 12, 2014 (GMT -0400)
Joe Miley Road (KSCBRUNS5) Elev 135 ft | 32.94 °N, 81.13 °W | Change Station

Current weather conditions updated 15 minutes ago

Scattered Clouds
Scattered Clouds
83.1 °F
Feels Like 89 °F
N
3.2
Wind Variable Wind from ENE

Tomorrow is forecast to be Much Cooler than today. Showers and thunderstorms late.

Today
High -- | Low -- °F
--% Chance of Precip.
Yesterday
High -- | Low -- °F
Precip. -- in
6:25 AM 8:35 PM
Full, 100% visible
Pressure 30.14 in
Visibility 10.0 miles
Clouds Scattered Clouds 10000 ft
Heat Index 89 °F
Dew Point 72 °F
Humidity 70%
Rainfall 0.05 in
Snow Depth Not available.
UV 1 out of 12
Pollen 2.40 out of 12
Air Quality Not available.
Flu Activity Sporadic
METAR KJYL 122335Z AUTO 20005KT 10SM SCT100 30/23 A3014 RMK AO2 T02950232

More Conditions Fewer Conditions

Pressure 30.14 in
Visibility 10.0 miles
Clouds Scattered Clouds 10000 ft
Heat Index 89 °F
Dew Point 72 °F
Humidity 70%
Rainfall 0.05 in
Snow Depth Not available.
UV 1 out of 12
Pollen 2.40 out of 12
Air Quality Not available.
Flu Activity Sporadic
METAR KJYL 122335Z AUTO 20005KT 10SM SCT100 30/23 A3014 RMK AO2 T02950232

More Conditions Fewer Conditions

10-Day Weather Forecast

Almanac

Astronomy

Jul. 12, 2014 Rise Set
Actual Time 6:25 AM EDT 8:35 PM EDT
Civil Twilight 5:57 AM EDT 9:03 PM EDT
Nautical Twilight 5:23 AM EDT 9:38 PM EDT
Astronomical Twilight 4:45 AM EDT 10:15 PM EDT
Moon 8:42 PM EDT 6:39 AM EDT
Length of Visible Light 15h 06m
Length of Day
14h 10m
Tomorrow will be 0m 55s shorter.
Full, 100% of the Moon is Illuminated
Today
Full
Jul 18
Last Quarter
Jul 26
New
Aug 3
First Quarter
Aug 10
Full

Today's Extremes

State Highs State Lows

Community

WunderPhotos

Upload Photos

1,733,003 photos uploaded!

WunderBlogs® & News

Nearby

Snow Depth

Station Depth Elevation
No new snow has been reported.

Earthquake Activity

City Distance Mag. Time & Date
No recent earthquake activity has been reported nearby.
Minimum magnitude displayed is 2.5.

Coastal Water Temperatures

Place Temperature
No Stations Reporting

Nearby Weather Stations

Station Location Temp. Heat Index Dew Point Humidity Wind Precip. Elev Updated Type
Joe Miley Road, Brunson, SC 83.1 °F 89 °F 72 °F 70% ENE  at  3.2 mph - / hr 135 ft 7:40 PM EDT Normal
RAWS SAVRAW SC, Aiken, SC 86 °F 92 °F 71 °F 62% SSW  at  4 mph 0.00 in / hr 330 ft 7:06 PM EDT MADIS
MesoWest YOUMANS FARM , Estill, SC 82 °F 90 °F 78 °F 86% SSE  at  3 mph 0.02 in / hr 75 ft 6:00 PM EDT MADIS
Edisto Research Education Center, Blackville, SC 83.3 °F 89 °F 73 °F 71% WSW  at  4.3 mph 0.00 in / hr 322 ft 7:55 PM EDT Rapid Fire

Show More Stations Show Fewer Stations